createdAt,value
2018-06-30T00:02:10.265Z,9.68
2018-06-30T00:04:43.868Z,9.35
2018-06-30T00:07:12.386Z,9.78
2018-06-30T00:09:40.835Z,8.70
2018-06-30T00:12:09.340Z,8.90
2018-06-30T00:14:37.803Z,9.10
2018-06-30T00:17:06.514Z,9.05
2018-06-30T00:19:34.929Z,8.68
2018-06-30T00:22:03.469Z,8.78
2018-06-30T00:24:31.920Z,8.18
2018-06-30T00:27:05.610Z,10.00
2018-06-30T00:29:34.208Z,9.35
2018-06-30T00:32:02.697Z,9.33
2018-06-30T00:34:31.134Z,9.95
2018-06-30T00:36:59.576Z,9.88
2018-06-30T00:39:28.009Z,10.05
2018-06-30T00:41:56.487Z,9.23
2018-06-30T00:44:24.947Z,8.80
2018-06-30T00:46:53.381Z,8.30
2018-06-30T00:49:21.889Z,9.98
2018-06-30T00:51:49.997Z,7.72
2018-06-30T00:54:18.482Z,7.42
2018-06-30T00:56:46.953Z,6.83
2018-06-30T00:59:15.404Z,9.78
2018-06-30T01:01:43.864Z,7.25
2018-06-30T01:04:12.449Z,7.65
2018-06-30T01:06:40.878Z,7.50
2018-06-30T01:09:09.380Z,7.33
2018-06-30T01:11:37.793Z,7.75
2018-06-30T01:14:06.326Z,7.08
2018-06-30T01:16:34.776Z,7.50
2018-06-30T01:19:03.289Z,7.58
2018-06-30T01:21:31.704Z,6.83
2018-06-30T01:24:00.195Z,6.58
2018-06-30T01:26:28.620Z,5.95
2018-06-30T01:28:57.112Z,5.95
2018-06-30T01:31:26.413Z,6.42
2018-06-30T01:33:54.899Z,6.17
2018-06-30T01:36:23.344Z,6.53
2018-06-30T01:38:51.820Z,5.35
2018-06-30T01:41:20.328Z,5.37
2018-06-30T01:43:48.783Z,6.53
2018-06-30T01:46:17.249Z,6.37
2018-06-30T01:48:45.717Z,6.08
2018-06-30T01:51:14.167Z,5.97
2018-06-30T01:53:42.688Z,5.45
2018-06-30T01:56:11.124Z,6.20
2018-06-30T01:58:39.610Z,5.33
2018-06-30T02:01:08.264Z,5.47
2018-06-30T02:03:36.740Z,5.95
2018-06-30T02:06:05.465Z,6.03
2018-06-30T02:08:33.962Z,5.78
2018-06-30T02:11:02.401Z,5.62
2018-06-30T02:13:30.855Z,5.40
2018-06-30T02:15:59.341Z,5.53
2018-06-30T02:18:27.820Z,5.28
2018-06-30T02:20:56.300Z,5.65
2018-06-30T02:23:24.848Z,5.97
2018-06-30T02:25:53.317Z,6.00
2018-06-30T02:28:21.745Z,5.05
2018-06-30T02:30:50.382Z,5.50
2018-06-30T02:33:18.839Z,5.42
2018-06-30T02:35:47.317Z,5.05
2018-06-30T02:38:15.768Z,5.58
2018-06-30T02:40:44.225Z,6.58
2018-06-30T02:43:12.695Z,6.28
2018-06-30T02:45:41.205Z,5.67
2018-06-30T02:48:09.701Z,6.17
2018-06-30T02:50:38.205Z,6.15
2018-06-30T02:53:06.757Z,5.87
2018-06-30T02:55:43.825Z,6.08
2018-06-30T02:58:12.279Z,5.85
2018-06-30T03:00:40.744Z,5.87
2018-06-30T03:03:09.313Z,6.45
2018-06-30T03:05:37.801Z,5.60
2018-06-30T03:08:06.312Z,6.12
2018-06-30T03:10:34.765Z,6.50
2018-06-30T03:13:03.218Z,4.78
2018-06-30T03:15:31.709Z,5.28
2018-06-30T03:18:00.213Z,5.80
2018-06-30T03:20:28.737Z,5.37
2018-06-30T03:22:57.202Z,4.95
2018-06-30T03:25:25.667Z,5.58
2018-06-30T03:27:54.196Z,5.50
2018-06-30T03:30:22.657Z,6.17
2018-06-30T03:32:51.160Z,6.42
2018-06-30T03:35:19.595Z,5.95
2018-06-30T03:37:48.033Z,6.17
2018-06-30T03:40:16.507Z,5.75
2018-06-30T03:42:44.935Z,6.03
2018-06-30T03:45:13.409Z,6.03
2018-06-30T03:47:41.838Z,6.30
2018-06-30T03:50:10.313Z,5.80
2018-06-30T03:52:38.751Z,5.65
2018-06-30T03:55:07.244Z,5.85
2018-06-30T03:57:35.363Z,6.20
2018-06-30T04:00:04.513Z,5.53
2018-06-30T04:02:33.092Z,5.37
2018-06-30T04:05:01.536Z,5.75
2018-06-30T04:07:30.021Z,5.33
2018-06-30T04:09:58.527Z,5.62
2018-06-30T04:12:26.955Z,5.10
2018-06-30T04:14:55.474Z,5.67
2018-06-30T04:17:23.923Z,4.90
2018-06-30T04:19:52.368Z,6.45
2018-06-30T04:22:20.834Z,5.08
2018-06-30T04:24:49.365Z,4.65
2018-06-30T04:27:17.875Z,5.05
2018-06-30T04:29:46.321Z,4.60
2018-06-30T04:32:14.773Z,5.87
2018-06-30T04:34:43.320Z,4.78
2018-06-30T04:37:11.793Z,5.00
2018-06-30T04:39:40.241Z,5.05
2018-06-30T04:42:08.733Z,5.15
2018-06-30T04:44:37.293Z,5.28
2018-06-30T04:47:05.789Z,5.65
2018-06-30T04:49:34.244Z,5.33
2018-06-30T04:52:02.694Z,5.55
2018-06-30T04:54:31.240Z,5.15
2018-06-30T04:56:59.713Z,5.47
2018-06-30T04:59:28.136Z,5.00
2018-06-30T05:01:56.625Z,4.55
2018-06-30T05:04:25.081Z,4.47
2018-06-30T05:06:53.542Z,5.05
2018-06-30T05:09:22.020Z,4.92
2018-06-30T05:11:50.513Z,4.17
2018-06-30T05:14:19.059Z,4.10
2018-06-30T05:16:47.601Z,4.25
2018-06-30T05:19:16.051Z,3.98
2018-06-30T05:21:44.627Z,5.17
2018-06-30T05:24:13.056Z,4.70
2018-06-30T05:26:41.533Z,4.60
2018-06-30T05:29:09.972Z,4.28
2018-06-30T05:31:38.869Z,4.15
2018-06-30T05:34:07.313Z,4.05
2018-06-30T05:36:36.001Z,3.95
2018-06-30T05:39:06.820Z,4.10
2018-06-30T05:41:35.305Z,3.15
2018-06-30T05:44:04.110Z,4.22
2018-06-30T05:46:32.597Z,4.25
2018-06-30T05:49:01.178Z,3.80
2018-06-30T05:51:29.669Z,3.75
2018-06-30T05:53:58.176Z,3.37
2018-06-30T05:56:26.657Z,4.00
2018-06-30T05:58:55.071Z,3.60
2018-06-30T06:01:23.556Z,3.62
2018-06-30T06:03:52.125Z,3.35
2018-06-30T06:06:20.593Z,2.95
2018-06-30T06:08:49.101Z,2.87
2018-06-30T06:11:17.525Z,3.30
2018-06-30T06:13:46.049Z,2.75
2018-06-30T06:16:14.546Z,2.70
2018-06-30T06:18:43.024Z,3.08
2018-06-30T06:21:11.566Z,2.70
2018-06-30T06:23:40.034Z,2.60
2018-06-30T06:26:08.481Z,2.55
2018-06-30T06:28:36.961Z,2.98
2018-06-30T06:31:05.104Z,2.70
2018-06-30T06:33:33.601Z,2.65
2018-06-30T06:36:02.048Z,2.60
2018-06-30T06:38:30.545Z,2.50
2018-06-30T06:40:59.025Z,2.85
2018-06-30T06:43:27.526Z,2.70
2018-06-30T06:45:56.009Z,3.22
2018-06-30T06:48:24.489Z,2.75
2018-06-30T06:50:52.938Z,2.65
2018-06-30T06:53:21.487Z,3.00
2018-06-30T06:55:49.929Z,2.90
2018-06-30T06:58:18.396Z,2.87
2018-06-30T07:00:46.838Z,2.85
2018-06-30T07:03:15.346Z,2.85
2018-06-30T07:05:43.794Z,3.72
2018-06-30T07:08:12.288Z,3.83
2018-06-30T07:10:40.756Z,3.50
2018-06-30T07:13:09.268Z,3.40
2018-06-30T07:15:37.808Z,3.33
2018-06-30T07:18:06.246Z,4.08
2018-06-30T07:20:34.685Z,3.45
2018-06-30T07:23:03.181Z,3.52
2018-06-30T07:25:31.620Z,3.90
2018-06-30T07:28:00.109Z,3.90
2018-06-30T07:30:28.543Z,3.98
2018-06-30T07:32:57.019Z,3.30
2018-06-30T07:35:25.444Z,3.90
2018-06-30T07:37:53.636Z,4.03
2018-06-30T07:40:22.105Z,4.00
2018-06-30T07:42:50.585Z,4.00
2018-06-30T07:45:19.019Z,3.75
2018-06-30T07:47:47.483Z,4.47
2018-06-30T07:50:15.972Z,4.20
2018-06-30T07:52:44.416Z,4.58
2018-06-30T07:55:12.921Z,4.30
2018-06-30T07:57:41.344Z,4.55
2018-06-30T08:00:09.854Z,3.92
2018-06-30T08:02:38.310Z,3.60
2018-06-30T08:05:06.808Z,3.58
2018-06-30T08:07:35.294Z,4.20
2018-06-30T08:10:03.863Z,4.28
2018-06-30T08:12:32.329Z,4.47
2018-06-30T08:15:00.865Z,4.65
2018-06-30T08:17:29.358Z,4.83
2018-06-30T08:19:57.827Z,4.47
2018-06-30T08:22:26.267Z,5.50
2018-06-30T08:24:55.257Z,4.65
2018-06-30T08:27:23.718Z,4.92
2018-06-30T08:29:52.173Z,4.12
2018-06-30T08:32:20.351Z,5.78
2018-06-30T08:34:48.797Z,4.50
2018-06-30T08:37:17.237Z,5.20
2018-06-30T08:39:45.689Z,5.35
2018-06-30T08:42:14.143Z,4.90
2018-06-30T08:44:42.621Z,5.78
2018-06-30T08:47:11.077Z,4.90
2018-06-30T08:49:39.545Z,5.58
2018-06-30T08:52:07.997Z,5.83
2018-06-30T08:54:36.455Z,5.37
2018-06-30T08:57:05.052Z,5.53
2018-06-30T08:59:33.529Z,5.17
2018-06-30T09:02:01.954Z,5.17
2018-06-30T09:04:30.404Z,5.83
2018-06-30T09:06:58.854Z,5.33
2018-06-30T09:09:27.352Z,4.75
2018-06-30T09:11:55.786Z,5.25
2018-06-30T09:14:24.301Z,5.37
2018-06-30T09:16:52.754Z,5.33
2018-06-30T09:19:21.218Z,4.87
2018-06-30T09:21:49.672Z,5.17
2018-06-30T09:24:18.238Z,5.92
2018-06-30T09:26:46.654Z,5.42
2018-06-30T09:29:15.126Z,5.28
2018-06-30T09:31:43.573Z,4.55
2018-06-30T09:34:12.189Z,5.28
2018-06-30T09:36:40.664Z,4.40
2018-06-30T09:39:10.469Z,4.87
2018-06-30T09:41:39.269Z,4.00
2018-06-30T09:44:08.145Z,7.30
2018-06-30T09:46:37.010Z,5.85
2018-06-30T09:49:05.534Z,6.33
2018-06-30T09:51:33.985Z,6.40
2018-06-30T09:54:02.118Z,4.67
2018-06-30T09:56:30.629Z,4.78
2018-06-30T09:58:59.085Z,5.58
2018-06-30T10:01:27.560Z,4.80
2018-06-30T10:03:56.017Z,4.45
2018-06-30T10:06:24.472Z,4.85
2018-06-30T10:08:52.969Z,4.37
2018-06-30T10:11:21.536Z,3.58
2018-06-30T10:13:49.965Z,2.90
2018-06-30T10:16:18.493Z,2.40
2018-06-30T10:18:46.953Z,3.92
2018-06-30T10:21:15.528Z,4.33
2018-06-30T10:23:43.937Z,2.95
2018-06-30T10:26:12.412Z,2.62
2018-06-30T10:28:40.905Z,2.40
2018-06-30T10:31:10.127Z,2.33
2018-06-30T10:33:38.535Z,2.00
2018-06-30T10:36:07.026Z,2.17
2018-06-30T10:38:35.500Z,2.47
2018-06-30T10:41:04.117Z,2.40
2018-06-30T10:43:32.529Z,2.22
2018-06-30T10:46:01.013Z,2.70
2018-06-30T10:48:29.433Z,2.67
2018-06-30T10:50:57.910Z,2.65
2018-06-30T10:53:26.352Z,2.50
2018-06-30T10:55:54.844Z,2.30
2018-06-30T10:58:23.296Z,1.87
2018-06-30T11:00:51.768Z,2.00
2018-06-30T11:03:20.228Z,2.27
2018-06-30T11:05:48.742Z,2.30
2018-06-30T11:08:17.248Z,2.37
2018-06-30T11:10:45.709Z,2.30
2018-06-30T11:13:14.181Z,2.00
2018-06-30T11:15:42.670Z,2.67
2018-06-30T11:18:11.193Z,2.30
2018-06-30T11:20:39.665Z,2.50
2018-06-30T11:23:08.149Z,3.40
2018-06-30T11:25:36.569Z,3.98
2018-06-30T11:28:05.129Z,3.72
2018-06-30T11:30:33.618Z,3.95
2018-06-30T11:33:02.096Z,3.70
2018-06-30T11:35:30.561Z,3.55
2018-06-30T11:37:59.028Z,4.08
2018-06-30T11:40:27.655Z,3.98
2018-06-30T11:42:56.124Z,3.80
2018-06-30T11:45:24.546Z,3.98
2018-06-30T11:47:53.029Z,3.80
2018-06-30T11:50:21.547Z,3.47
2018-06-30T11:52:50.026Z,3.58
2018-06-30T11:55:18.476Z,3.83
2018-06-30T11:57:46.982Z,3.67
2018-06-30T12:00:15.429Z,3.67
2018-06-30T12:02:43.901Z,3.20
2018-06-30T12:05:12.329Z,2.98
2018-06-30T12:07:40.806Z,3.37
2018-06-30T12:10:09.271Z,3.12
2018-06-30T12:12:37.763Z,2.85
2018-06-30T12:15:06.225Z,2.80
2018-06-30T12:17:34.753Z,3.00
2018-06-30T12:20:03.281Z,2.72
2018-06-30T12:22:31.775Z,3.00
2018-06-30T12:25:00.225Z,2.45
2018-06-30T12:27:28.678Z,3.00
2018-06-30T12:29:57.138Z,3.22
2018-06-30T12:32:25.673Z,3.17
2018-06-30T12:34:54.106Z,3.77
2018-06-30T12:37:22.593Z,3.87
2018-06-30T12:39:51.064Z,2.80
2018-06-30T12:42:19.525Z,2.47
2018-06-30T12:44:48.061Z,2.40
2018-06-30T12:47:16.494Z,2.30
2018-06-30T12:49:44.928Z,2.58
2018-06-30T12:52:13.373Z,2.62
2018-06-30T12:54:41.922Z,2.72
2018-06-30T12:57:10.359Z,2.50
2018-06-30T12:59:38.835Z,2.40
2018-06-30T13:02:07.353Z,2.15
2018-06-30T13:04:35.868Z,2.50
2018-06-30T13:07:04.333Z,2.60
2018-06-30T13:09:32.540Z,3.05
2018-06-30T13:12:01.007Z,2.92
2018-06-30T13:14:29.465Z,3.00
2018-06-30T13:16:57.955Z,2.27
2018-06-30T13:19:26.442Z,2.50
2018-06-30T13:21:54.916Z,2.62
2018-06-30T13:24:23.381Z,2.98
2018-06-30T13:26:51.885Z,2.85
2018-06-30T13:29:20.363Z,2.58
2018-06-30T13:31:48.831Z,2.15
2018-06-30T13:34:17.361Z,2.10
2018-06-30T13:36:45.803Z,2.90
2018-06-30T13:39:15.402Z,3.12
2018-06-30T13:41:44.271Z,3.08
2018-06-30T13:44:13.296Z,2.60
2018-06-30T13:46:41.748Z,3.08
2018-06-30T13:49:10.257Z,3.25
2018-06-30T13:51:38.717Z,3.50
2018-06-30T13:54:07.272Z,3.42
2018-06-30T13:56:35.720Z,3.33
2018-06-30T13:59:04.227Z,3.75
2018-06-30T14:01:32.669Z,4.35
2018-06-30T14:04:01.157Z,3.22
2018-06-30T14:06:29.600Z,3.70
2018-06-30T14:08:58.101Z,4.42
2018-06-30T14:11:26.714Z,4.83
2018-06-30T14:13:55.208Z,4.80
2018-06-30T14:16:23.644Z,4.72
2018-06-30T14:18:52.117Z,5.47
2018-06-30T14:21:20.561Z,5.42
2018-06-30T14:23:49.003Z,4.80
2018-06-30T14:26:17.152Z,4.15
2018-06-30T14:28:45.659Z,4.60
2018-06-30T14:31:14.108Z,4.92
2018-06-30T14:33:42.537Z,6.03
2018-06-30T14:36:11.041Z,5.55
2018-06-30T14:38:39.501Z,4.72
2018-06-30T14:41:08.045Z,4.30
2018-06-30T14:43:36.513Z,4.65
2018-06-30T14:46:05.049Z,5.22
2018-06-30T14:48:33.494Z,4.97
2018-06-30T14:51:01.993Z,4.45
2018-06-30T14:53:30.511Z,4.80
2018-06-30T14:55:59.036Z,5.20
2018-06-30T14:58:27.486Z,5.87
2018-06-30T15:00:55.989Z,5.37
2018-06-30T15:03:24.408Z,5.12
2018-06-30T15:05:52.892Z,5.12
2018-06-30T15:08:21.377Z,4.83
2018-06-30T15:10:49.892Z,5.53
2018-06-30T15:13:18.344Z,4.45
2018-06-30T15:15:46.803Z,4.60
2018-06-30T15:18:15.335Z,5.12
2018-06-30T15:20:43.844Z,5.25
2018-06-30T15:23:12.337Z,5.37
2018-06-30T15:25:40.812Z,5.35
2018-06-30T15:28:09.350Z,5.35
2018-06-30T15:30:37.839Z,5.55
2018-06-30T15:33:06.376Z,5.15
2018-06-30T15:35:34.879Z,5.08
2018-06-30T15:38:03.313Z,5.20
2018-06-30T15:40:31.492Z,5.20
2018-06-30T15:42:59.950Z,5.22
2018-06-30T15:45:28.422Z,5.35
2018-06-30T15:47:56.904Z,20.12
2018-06-30T15:50:25.429Z,7.47
2018-06-30T15:52:53.882Z,5.03
2018-06-30T15:55:22.377Z,4.72
2018-06-30T15:57:50.859Z,4.80
2018-06-30T16:00:19.361Z,4.72
2018-06-30T16:02:47.834Z,5.53
2018-06-30T16:05:16.381Z,4.80
2018-06-30T16:07:44.865Z,5.12
2018-06-30T16:10:13.352Z,4.90
2018-06-30T16:12:41.833Z,5.33
2018-06-30T16:15:10.301Z,4.97
2018-06-30T16:17:38.764Z,4.22
2018-06-30T16:20:07.269Z,5.05
2018-06-30T16:22:35.731Z,4.75
2018-06-30T16:25:04.428Z,4.53
2018-06-30T16:27:32.920Z,4.92
2018-06-30T16:30:01.383Z,6.42
2018-06-30T16:32:29.856Z,5.17
2018-06-30T16:34:58.302Z,4.40
2018-06-30T16:37:26.806Z,4.10
2018-06-30T16:39:55.223Z,4.65
2018-06-30T16:42:23.411Z,4.42
2018-06-30T16:44:51.908Z,4.53
2018-06-30T16:47:20.409Z,5.65
2018-06-30T16:49:48.918Z,4.40
2018-06-30T16:52:17.409Z,4.75
2018-06-30T16:54:45.876Z,4.95
2018-06-30T16:57:14.321Z,4.37
2018-06-30T16:59:42.802Z,4.40
2018-06-30T17:02:11.333Z,4.70
2018-06-30T17:04:39.785Z,4.50
2018-06-30T17:07:08.308Z,4.95
2018-06-30T17:09:36.767Z,4.22
2018-06-30T17:12:05.221Z,4.87
2018-06-30T17:14:33.678Z,4.10
2018-06-30T17:17:02.137Z,4.45
2018-06-30T17:19:30.577Z,4.50
2018-06-30T17:21:59.085Z,4.12
2018-06-30T17:24:27.684Z,4.08
2018-06-30T17:26:56.177Z,4.20
2018-06-30T17:29:24.629Z,4.10
2018-06-30T17:31:52.801Z,4.00
2018-06-30T17:34:21.325Z,4.35
2018-06-30T17:36:49.817Z,4.10
2018-06-30T17:39:18.284Z,4.15
2018-06-30T17:41:46.814Z,3.85
2018-06-30T17:44:15.002Z,3.58
2018-06-30T17:46:43.552Z,3.40
2018-06-30T17:49:12.022Z,2.80
2018-06-30T17:51:40.506Z,2.85
2018-06-30T17:54:09.439Z,2.70
2018-06-30T17:56:38.054Z,2.27
2018-06-30T17:59:26.873Z,2.47
2018-06-30T18:01:55.462Z,1.90
2018-06-30T18:04:23.927Z,2.00
2018-06-30T18:06:52.471Z,2.35
2018-06-30T18:09:20.698Z,1.35
2018-06-30T18:11:49.173Z,1.82
2018-06-30T18:14:17.692Z,1.60
2018-06-30T18:16:46.258Z,1.60
2018-06-30T18:19:14.745Z,1.57
2018-06-30T18:21:43.229Z,1.52
2018-06-30T18:24:11.708Z,1.40
2018-06-30T18:26:40.205Z,1.15
2018-06-30T18:29:08.781Z,1.40
2018-06-30T18:31:37.248Z,1.92
2018-06-30T18:34:06.117Z,1.37
2018-06-30T18:36:34.586Z,1.30
2018-06-30T18:39:03.225Z,1.00
2018-06-30T18:41:31.652Z,1.12
2018-06-30T18:44:00.144Z,1.20
2018-06-30T18:46:28.614Z,1.30
2018-06-30T18:48:57.153Z,1.37
2018-06-30T18:51:25.621Z,1.07
2018-06-30T18:53:54.127Z,1.37
2018-06-30T18:56:22.585Z,1.30
2018-06-30T18:58:51.073Z,1.20
2018-06-30T19:01:19.557Z,1.10
2018-06-30T19:03:48.034Z,1.40
2018-06-30T19:06:16.561Z,1.35
2018-06-30T19:08:45.057Z,1.37
2018-06-30T19:11:13.600Z,1.10
2018-06-30T19:13:42.189Z,1.52
2018-06-30T19:16:10.707Z,1.50
2018-06-30T19:18:39.210Z,1.50
2018-06-30T19:21:07.703Z,1.10
2018-06-30T19:23:36.243Z,1.25
2018-06-30T19:26:04.797Z,1.55
2018-06-30T19:28:33.241Z,1.62
2018-06-30T19:31:01.702Z,1.10
2018-06-30T19:33:30.181Z,1.17
2018-06-30T19:35:58.660Z,1.50
2018-06-30T19:38:27.145Z,1.30
2018-06-30T19:40:55.678Z,1.17
2018-06-30T19:43:24.133Z,1.20
2018-06-30T19:45:52.585Z,1.40
2018-06-30T19:48:21.050Z,1.27
2018-06-30T19:50:49.483Z,1.30
2018-06-30T19:53:18.100Z,1.00
2018-06-30T19:55:46.538Z,1.10
2018-06-30T19:58:15.357Z,1.10
2018-06-30T20:00:43.855Z,1.25
2018-06-30T20:03:12.364Z,1.10
2018-06-30T20:05:40.862Z,1.55
2018-06-30T20:08:09.384Z,0.95
2018-06-30T20:10:37.912Z,1.05
2018-06-30T20:13:06.453Z,1.00
2018-06-30T20:15:34.903Z,1.22
2018-06-30T20:18:03.368Z,1.22
2018-06-30T20:20:31.896Z,1.30
2018-06-30T20:23:00.358Z,1.32
2018-06-30T20:25:28.841Z,1.05
2018-06-30T20:27:57.339Z,1.12
2018-06-30T20:30:25.794Z,0.98
2018-06-30T20:32:54.269Z,1.00
2018-06-30T20:35:22.769Z,1.10
2018-06-30T20:37:50.900Z,1.20
2018-06-30T20:40:19.463Z,1.12
2018-06-30T20:42:47.959Z,1.92
2018-06-30T20:45:16.434Z,1.07
2018-06-30T20:47:44.960Z,1.20
2018-06-30T20:50:13.376Z,1.10
2018-06-30T20:52:41.824Z,1.30
2018-06-30T20:55:10.301Z,1.05
2018-06-30T20:57:38.804Z,1.20
2018-06-30T21:00:07.333Z,1.40
2018-06-30T21:02:35.821Z,1.50
2018-06-30T21:05:04.342Z,1.32
2018-06-30T21:07:32.776Z,1.25
2018-06-30T21:10:01.277Z,1.65
2018-06-30T21:12:29.737Z,1.67
2018-06-30T21:14:57.913Z,1.70
2018-06-30T21:17:26.483Z,1.62
2018-06-30T21:19:54.956Z,1.62
2018-06-30T21:22:23.409Z,1.47
2018-06-30T21:24:51.881Z,1.60
2018-06-30T21:27:20.349Z,1.75
2018-06-30T21:29:48.804Z,1.80
2018-06-30T21:32:17.293Z,1.80
2018-06-30T21:34:45.789Z,2.15
2018-06-30T21:37:14.260Z,1.90
2018-06-30T21:39:42.749Z,2.33
2018-06-30T21:42:11.177Z,2.62
2018-06-30T21:44:39.592Z,1.95
2018-06-30T21:47:08.192Z,2.42
2018-06-30T21:49:36.668Z,2.58
2018-06-30T21:52:05.185Z,2.30
2018-06-30T21:54:33.696Z,2.33
2018-06-30T21:57:02.162Z,2.30
2018-06-30T21:59:30.597Z,2.42
2018-06-30T22:01:59.072Z,1.95
2018-06-30T22:04:27.556Z,2.70
2018-06-30T22:06:56.043Z,1.87
2018-06-30T22:09:24.211Z,1.60
2018-06-30T22:11:52.697Z,2.25
2018-06-30T22:14:21.209Z,1.77
2018-06-30T22:16:49.729Z,1.52
2018-06-30T22:19:18.220Z,1.42
2018-06-30T22:21:46.680Z,1.52
2018-06-30T22:24:15.165Z,1.60
2018-06-30T22:26:43.642Z,1.50
2018-06-30T22:29:12.077Z,1.32
2018-06-30T22:31:40.573Z,1.30
2018-06-30T22:34:09.020Z,0.90
2018-06-30T22:36:37.650Z,1.10
2018-06-30T22:39:08.616Z,1.07
2018-06-30T22:41:37.135Z,1.37
2018-06-30T22:44:05.881Z,1.10
2018-06-30T22:46:34.409Z,1.12
2018-06-30T22:49:02.913Z,1.00
2018-06-30T22:51:31.398Z,1.32
2018-06-30T22:53:59.843Z,1.20
2018-06-30T22:56:28.305Z,0.60
2018-06-30T22:58:56.725Z,1.00
2018-06-30T23:01:25.192Z,0.85
2018-06-30T23:03:53.630Z,0.93
2018-06-30T23:06:22.298Z,0.90
2018-06-30T23:08:53.827Z,1.00
2018-06-30T23:11:23.567Z,1.00
2018-06-30T23:13:52.111Z,0.72
2018-06-30T23:16:20.628Z,0.95
2018-06-30T23:18:49.149Z,0.60
2018-06-30T23:21:17.338Z,0.90
2018-06-30T23:23:45.830Z,0.98
2018-06-30T23:26:14.296Z,0.85
2018-06-30T23:28:42.432Z,0.60
2018-06-30T23:31:10.881Z,0.72
2018-06-30T23:33:39.325Z,0.68
2018-06-30T23:36:07.510Z,0.70
2018-06-30T23:38:35.971Z,0.72
2018-06-30T23:41:04.480Z,0.55
2018-06-30T23:43:33.011Z,0.70
2018-06-30T23:46:01.442Z,0.60
2018-06-30T23:48:29.922Z,0.70
2018-06-30T23:50:58.557Z,0.70
2018-06-30T23:53:27.036Z,0.60
2018-06-30T23:55:55.542Z,0.70
2018-06-30T23:58:23.707Z,0.70
